createdAt,value
2022-07-27T00:01:01.569Z,50.67
2022-07-27T00:03:28.128Z,50.24
2022-07-27T00:05:54.683Z,50.37
2022-07-27T00:08:23.883Z,50.69
2022-07-27T00:10:51.943Z,50.27
2022-07-27T00:13:18.988Z,50.67
2022-07-27T00:15:45.535Z,50.71
2022-07-27T00:18:12.074Z,50.81
2022-07-27T00:20:39.957Z,51.59
2022-07-27T00:23:06.716Z,51.29
2022-07-27T00:25:33.396Z,51.80
2022-07-27T00:27:59.956Z,52.51
2022-07-27T00:30:26.625Z,51.87
2022-07-27T00:32:53.427Z,51.84
2022-07-27T00:35:20.178Z,52.46
2022-07-27T00:37:46.774Z,52.67
2022-07-27T00:40:13.349Z,52.56
2022-07-27T00:42:40.010Z,53.20
2022-07-27T00:45:07.266Z,53.49
2022-07-27T00:47:33.915Z,53.74
2022-07-27T00:50:01.209Z,53.93
2022-07-27T00:52:28.593Z,53.30
2022-07-27T00:54:55.595Z,53.29
2022-07-27T00:57:23.568Z,53.51
2022-07-27T00:59:50.165Z,53.38
2022-07-27T01:02:17.268Z,54.09
2022-07-27T01:04:47.410Z,55.19
2022-07-27T01:07:14.988Z,55.07
2022-07-27T01:09:57.336Z,56.13
2022-07-27T01:12:29.011Z,56.87
2022-07-27T01:14:58.022Z,60.02
2022-07-27T01:17:26.319Z,57.32
2022-07-27T01:19:53.517Z,59.99
2022-07-27T01:22:20.362Z,59.34
2022-07-27T01:24:48.156Z,59.07
2022-07-27T01:27:14.876Z,59.24
2022-07-27T01:29:41.826Z,59.37
2022-07-27T01:32:08.824Z,60.12
2022-07-27T01:34:35.931Z,58.67
2022-07-27T01:37:04.061Z,57.75
2022-07-27T01:39:31.562Z,59.83
2022-07-27T01:41:58.917Z,58.12
2022-07-27T01:44:25.460Z,59.31
2022-07-27T01:46:52.029Z,61.39
2022-07-27T01:49:18.889Z,61.29
2022-07-27T01:51:45.463Z,61.91
2022-07-27T01:54:12.427Z,61.99
2022-07-27T01:56:39.117Z,61.89
2022-07-27T01:59:05.753Z,62.63
2022-07-27T02:01:32.368Z,63.87
2022-07-27T02:03:58.942Z,63.79
2022-07-27T02:06:25.464Z,64.96
2022-07-27T02:08:51.985Z,64.42
2022-07-27T02:11:37.238Z,64.59
2022-07-27T02:14:03.752Z,64.37
2022-07-27T02:16:30.464Z,65.17
2022-07-27T02:18:58.080Z,64.42
2022-07-27T02:21:24.726Z,64.42
2022-07-27T02:23:51.245Z,62.84
2022-07-27T02:26:17.805Z,62.71
2022-07-27T02:28:44.329Z,63.75
2022-07-27T02:31:11.044Z,64.02
2022-07-27T02:33:37.533Z,62.29
2022-07-27T02:36:04.376Z,63.53
2022-07-27T02:38:30.942Z,62.59
2022-07-27T02:40:57.463Z,63.73
2022-07-27T02:43:23.983Z,64.93
2022-07-27T02:45:51.492Z,65.66
2022-07-27T02:48:18.149Z,65.68
2022-07-27T02:50:44.760Z,64.74
2022-07-27T02:53:11.421Z,66.79
2022-07-27T02:55:37.999Z,66.83
2022-07-27T02:58:04.583Z,66.57
2022-07-27T03:00:31.312Z,67.69
2022-07-27T03:02:57.829Z,67.55
2022-07-27T03:05:24.431Z,66.38
2022-07-27T03:07:51.055Z,65.78
2022-07-27T03:10:17.777Z,67.77
2022-07-27T03:12:44.917Z,67.99
2022-07-27T03:15:11.628Z,69.36
2022-07-27T03:17:38.327Z,66.43
2022-07-27T03:20:05.523Z,66.97
2022-07-27T03:22:35.420Z,66.27
2022-07-27T03:25:02.039Z,66.89
2022-07-27T03:27:29.209Z,67.30
2022-07-27T03:29:56.445Z,66.34
2022-07-27T03:32:23.008Z,66.17
2022-07-27T03:34:49.716Z,70.58
2022-07-27T03:37:17.269Z,68.19
2022-07-27T03:39:43.916Z,69.48
2022-07-27T03:42:10.656Z,68.78
2022-07-27T03:44:37.200Z,70.19
2022-07-27T03:47:03.736Z,69.84
2022-07-27T03:49:30.322Z,70.87
2022-07-27T03:51:56.913Z,71.14
2022-07-27T03:54:23.463Z,71.06
2022-07-27T03:56:50.043Z,72.09
2022-07-27T03:59:16.643Z,69.45
2022-07-27T04:01:43.323Z,68.88
2022-07-27T04:04:09.895Z,68.62
2022-07-27T04:06:36.408Z,68.11
2022-07-27T04:09:14.003Z,68.94
2022-07-27T04:11:50.663Z,69.42
2022-07-27T04:14:18.353Z,68.03
2022-07-27T04:16:44.940Z,68.19
2022-07-27T04:19:11.702Z,67.90
2022-07-27T04:21:38.867Z,68.05
2022-07-27T04:24:07.084Z,69.90
2022-07-27T04:26:33.924Z,69.27
2022-07-27T04:29:00.456Z,68.77
2022-07-27T04:31:26.987Z,68.35
2022-07-27T04:33:53.780Z,67.75
2022-07-27T04:36:20.323Z,68.25
2022-07-27T04:38:46.979Z,68.95
2022-07-27T04:41:13.539Z,68.57
2022-07-27T04:43:40.131Z,67.95
2022-07-27T04:46:11.800Z,69.68
2022-07-27T04:48:41.601Z,68.15
2022-07-27T04:51:16.416Z,68.51
2022-07-27T04:53:53.827Z,67.26
2022-07-27T04:56:26.597Z,67.53
2022-07-27T04:58:53.578Z,68.78
2022-07-27T05:01:20.311Z,66.39
2022-07-27T05:03:47.041Z,64.83
2022-07-27T05:06:13.635Z,64.82
2022-07-27T05:08:40.220Z,64.26
2022-07-27T05:11:06.778Z,63.35
2022-07-27T05:13:33.383Z,63.89
2022-07-27T05:15:59.912Z,63.25
2022-07-27T05:18:26.412Z,62.89
2022-07-27T05:20:52.947Z,63.32
2022-07-27T05:23:19.559Z,62.99
2022-07-27T05:25:46.073Z,62.45
2022-07-27T05:28:13.055Z,62.62
2022-07-27T05:30:39.647Z,60.92
2022-07-27T05:33:06.186Z,60.77
2022-07-27T05:35:32.747Z,60.10
2022-07-27T05:37:59.474Z,60.44
2022-07-27T05:40:26.592Z,60.68
2022-07-27T05:42:53.288Z,60.43
2022-07-27T05:45:20.115Z,60.31
2022-07-27T05:47:47.096Z,60.82
2022-07-27T05:50:14.666Z,60.16
2022-07-27T05:52:41.611Z,59.89
2022-07-27T05:55:08.520Z,59.87
2022-07-27T05:57:35.723Z,59.99
2022-07-27T06:00:02.888Z,60.30
2022-07-27T06:02:31.618Z,59.42
2022-07-27T06:04:58.414Z,59.84
2022-07-27T06:07:43.519Z,60.14
2022-07-27T06:10:11.534Z,61.19
2022-07-27T06:12:42.542Z,59.69
2022-07-27T06:15:10.344Z,60.66
2022-07-27T06:17:37.006Z,60.44
2022-07-27T06:20:06.331Z,61.02
2022-07-27T06:22:33.228Z,61.08
2022-07-27T06:24:59.754Z,61.42
2022-07-27T06:27:29.613Z,60.74
2022-07-27T06:29:56.345Z,60.32
2022-07-27T06:32:22.867Z,59.69
2022-07-27T06:34:49.557Z,58.15
2022-07-27T06:37:17.089Z,59.02
2022-07-27T06:39:46.662Z,57.25
2022-07-27T06:42:14.547Z,56.89
2022-07-27T06:44:41.395Z,56.89
2022-07-27T06:47:08.031Z,55.94
2022-07-27T06:49:34.580Z,55.80
2022-07-27T06:52:01.159Z,54.98
2022-07-27T06:54:27.678Z,54.46
2022-07-27T06:56:54.203Z,54.51
2022-07-27T06:59:20.694Z,54.42
2022-07-27T07:01:48.971Z,54.78
2022-07-27T07:04:15.982Z,54.59
2022-07-27T07:06:42.623Z,54.42
2022-07-27T07:09:09.345Z,54.62
2022-07-27T07:11:37.427Z,53.71
2022-07-27T07:14:04.356Z,53.92
2022-07-27T07:16:30.994Z,54.07
2022-07-27T07:18:57.628Z,54.01
2022-07-27T07:21:24.166Z,53.54
2022-07-27T07:23:51.455Z,53.37
2022-07-27T07:26:18.028Z,53.88
2022-07-27T07:28:44.975Z,53.23
2022-07-27T07:31:11.721Z,52.31
2022-07-27T07:33:38.322Z,52.21
2022-07-27T07:36:14.076Z,53.00
2022-07-27T07:38:42.543Z,51.26
2022-07-27T07:41:09.484Z,51.16
2022-07-27T07:43:38.568Z,51.54
2022-07-27T07:46:05.804Z,51.00
2022-07-27T07:48:32.549Z,50.89
2022-07-27T07:50:59.103Z,49.53
2022-07-27T07:53:26.637Z,50.08
2022-07-27T07:55:56.122Z,50.67
2022-07-27T07:58:22.975Z,50.93
2022-07-27T08:00:49.840Z,51.94
2022-07-27T08:03:17.418Z,50.42
2022-07-27T08:05:44.083Z,49.75
2022-07-27T08:08:10.724Z,48.70
2022-07-27T08:10:37.399Z,48.94
2022-07-27T08:13:03.990Z,49.86
2022-07-27T08:15:36.254Z,48.94
2022-07-27T08:18:06.511Z,50.72
2022-07-27T08:20:34.050Z,50.35
2022-07-27T08:23:01.004Z,49.74
2022-07-27T08:25:27.667Z,48.06
2022-07-27T08:27:55.599Z,48.40
2022-07-27T08:30:23.500Z,47.43
2022-07-27T08:32:51.668Z,46.97
2022-07-27T08:35:19.905Z,47.66
2022-07-27T08:37:46.639Z,47.48
2022-07-27T08:43:01.901Z,46.33
2022-07-27T08:45:30.424Z,47.06
2022-07-27T08:47:57.084Z,46.45
2022-07-27T08:50:24.664Z,46.34
2022-07-27T08:52:58.416Z,46.26
2022-07-27T08:55:24.959Z,45.69
2022-07-27T08:57:51.668Z,46.39
2022-07-27T09:00:19.308Z,46.74
2022-07-27T09:02:46.570Z,46.28
2022-07-27T09:05:13.374Z,47.04
2022-07-27T09:07:39.948Z,47.23
2022-07-27T09:10:07.159Z,44.42
2022-07-27T09:12:34.000Z,44.19
2022-07-27T09:15:14.504Z,43.76
2022-07-27T09:17:48.362Z,43.05
2022-07-27T09:20:19.035Z,43.84
2022-07-27T09:22:50.879Z,42.57
2022-07-27T09:25:44.787Z,42.92
2022-07-27T09:28:09.375Z,42.96
2022-07-27T09:30:42.222Z,43.74
2022-07-27T09:33:09.664Z,43.69
2022-07-27T09:35:36.324Z,43.99
2022-07-27T09:38:24.310Z,43.55
2022-07-27T09:41:06.462Z,43.55
2022-07-27T09:46:36.099Z,42.71
2022-07-27T09:49:04.462Z,41.46
2022-07-27T09:51:58.686Z,42.00
2022-07-27T09:54:20.027Z,42.87
2022-07-27T09:56:57.525Z,41.16
2022-07-27T09:59:24.035Z,41.73
2022-07-27T10:01:56.367Z,42.72
2022-07-27T10:04:24.200Z,42.06
2022-07-27T10:07:02.915Z,41.78
2022-07-27T10:09:34.817Z,41.60
2022-07-27T10:12:03.898Z,42.07
2022-07-27T10:14:30.750Z,41.94
2022-07-27T10:16:57.816Z,43.00
2022-07-27T10:19:45.025Z,43.16
2022-07-27T10:22:11.659Z,41.94
2022-07-27T10:24:38.261Z,43.54
2022-07-27T10:27:28.463Z,41.48
2022-07-27T10:29:56.458Z,42.34
2022-07-27T10:32:28.786Z,41.51
2022-07-27T10:34:55.521Z,41.94
2022-07-27T10:37:28.729Z,41.69
2022-07-27T10:40:17.040Z,41.16
2022-07-27T10:42:53.508Z,40.37
2022-07-27T10:45:21.106Z,41.18
2022-07-27T10:47:52.514Z,40.21
2022-07-27T10:50:25.931Z,41.19
2022-07-27T10:52:52.557Z,41.77
2022-07-27T10:55:31.500Z,41.64
2022-07-27T10:58:09.897Z,41.19
2022-07-27T11:00:58.564Z,40.63
2022-07-27T11:03:29.570Z,41.06
2022-07-27T11:06:01.270Z,40.51
2022-07-27T11:08:47.634Z,39.30
2022-07-27T11:11:18.045Z,40.06
2022-07-27T11:13:46.259Z,39.61
2022-07-27T11:16:24.058Z,39.31
2022-07-27T11:18:58.413Z,40.14
2022-07-27T11:21:28.527Z,41.29
2022-07-27T11:24:18.399Z,39.51
2022-07-27T11:26:52.993Z,38.90
2022-07-27T11:29:23.130Z,38.64
2022-07-27T11:31:57.703Z,38.99
2022-07-27T11:34:33.227Z,39.17
2022-07-27T11:37:02.968Z,38.25
2022-07-27T11:42:21.190Z,39.14
2022-07-27T11:44:50.953Z,38.34
2022-07-27T11:47:19.736Z,38.21
2022-07-27T11:49:46.795Z,36.92
2022-07-27T11:52:17.163Z,36.67
2022-07-27T11:54:43.716Z,37.16
2022-07-27T11:57:16.445Z,37.15
2022-07-27T11:59:44.882Z,37.25
2022-07-27T12:02:23.139Z,36.37
2022-07-27T12:04:52.280Z,37.26
2022-07-27T12:07:32.777Z,38.11
2022-07-27T12:10:02.299Z,38.43
2022-07-27T12:12:33.648Z,38.46
2022-07-27T12:15:44.040Z,38.29
2022-07-27T12:18:02.202Z,38.06
2022-07-27T12:20:33.865Z,38.74
2022-07-27T12:23:06.027Z,38.19
2022-07-27T12:25:34.283Z,35.89
2022-07-27T12:28:17.898Z,36.47
2022-07-27T12:30:46.010Z,36.44
2022-07-27T12:33:35.515Z,36.21
2022-07-27T12:36:04.776Z,36.80
2022-07-27T12:38:46.004Z,37.52
2022-07-27T12:41:25.170Z,37.35
2022-07-27T12:44:12.178Z,37.34
2022-07-27T12:47:02.349Z,37.68
2022-07-27T12:49:34.678Z,38.62
2022-07-27T12:52:08.076Z,37.40
2022-07-27T12:54:34.836Z,37.36
2022-07-27T12:57:01.532Z,37.59
2022-07-27T12:59:28.108Z,38.16
2022-07-27T13:01:55.974Z,37.10
2022-07-27T13:04:22.932Z,36.03
2022-07-27T13:06:49.535Z,37.28
2022-07-27T13:09:16.392Z,35.16
2022-07-27T13:11:46.306Z,35.61
2022-07-27T13:14:14.618Z,35.21
2022-07-27T13:16:41.185Z,35.38
2022-07-27T13:19:07.879Z,35.18
2022-07-27T13:21:34.452Z,35.81
2022-07-27T13:24:02.804Z,35.61
2022-07-27T13:26:29.318Z,36.37
2022-07-27T13:28:55.817Z,36.96
2022-07-27T13:31:22.445Z,36.40
2022-07-27T13:33:48.979Z,36.95
2022-07-27T13:36:15.561Z,36.63
2022-07-27T13:38:42.054Z,36.27
2022-07-27T13:41:08.668Z,36.64
2022-07-27T13:43:35.219Z,37.32
2022-07-27T13:46:03.338Z,35.79
2022-07-27T13:48:30.086Z,35.87
2022-07-27T13:50:56.639Z,35.72
2022-07-27T13:53:23.158Z,36.03
2022-07-27T13:55:49.709Z,36.03
2022-07-27T13:58:16.297Z,36.46
2022-07-27T14:00:42.950Z,36.74
2022-07-27T14:03:11.233Z,37.60
2022-07-27T14:05:38.230Z,35.39
2022-07-27T14:08:08.992Z,34.95
2022-07-27T14:10:42.010Z,34.90
2022-07-27T14:13:13.677Z,35.21
2022-07-27T14:15:53.171Z,35.42
2022-07-27T14:18:26.499Z,35.71
2022-07-27T14:20:54.342Z,35.30
2022-07-27T14:23:21.121Z,35.29
2022-07-27T14:25:47.752Z,35.79
2022-07-27T14:28:14.376Z,35.39
2022-07-27T14:30:41.203Z,35.75
2022-07-27T14:33:07.733Z,34.57
2022-07-27T14:35:38.433Z,35.61
2022-07-27T14:38:07.707Z,34.74
2022-07-27T14:40:34.287Z,34.39
2022-07-27T14:43:01.414Z,34.96
2022-07-27T14:45:44.780Z,35.25
2022-07-27T14:48:23.071Z,35.46
2022-07-27T14:50:59.511Z,32.99
2022-07-27T14:53:26.058Z,33.42
2022-07-27T14:55:52.595Z,33.86
2022-07-27T14:58:19.305Z,32.63
2022-07-27T15:00:46.055Z,31.62
2022-07-27T15:03:14.612Z,32.20
2022-07-27T15:05:49.525Z,32.84
2022-07-27T15:08:20.579Z,33.70
2022-07-27T15:10:48.026Z,34.51
2022-07-27T15:13:15.035Z,35.24
2022-07-27T15:15:41.657Z,34.15
2022-07-27T15:18:08.987Z,33.11
2022-07-27T15:20:35.982Z,30.44
2022-07-27T15:23:06.652Z,30.98
2022-07-27T15:25:33.961Z,31.60
2022-07-27T15:28:00.910Z,32.54
2022-07-27T15:30:27.571Z,32.90
2022-07-27T15:32:54.084Z,33.57
2022-07-27T15:35:20.609Z,34.08
2022-07-27T15:37:54.198Z,34.80
2022-07-27T15:40:37.659Z,34.29
2022-07-27T15:43:06.068Z,34.40
2022-07-27T15:45:32.739Z,34.57
2022-07-27T15:47:59.374Z,34.02
2022-07-27T15:50:25.892Z,34.53
2022-07-27T15:52:52.472Z,33.79
2022-07-27T15:55:19.001Z,33.67
2022-07-27T15:57:45.556Z,34.17
2022-07-27T16:00:12.816Z,34.76
2022-07-27T16:02:40.603Z,34.94
2022-07-27T16:05:19.491Z,34.40
2022-07-27T16:07:48.742Z,34.82
2022-07-27T16:10:16.247Z,35.03
2022-07-27T16:12:42.876Z,34.76
2022-07-27T16:15:09.861Z,34.94
2022-07-27T16:17:36.395Z,35.13
2022-07-27T16:20:04.315Z,35.38
2022-07-27T16:22:32.527Z,36.56
2022-07-27T16:24:59.665Z,35.41
2022-07-27T16:27:26.254Z,35.60
2022-07-27T16:29:52.828Z,36.04
2022-07-27T16:32:19.404Z,35.89
2022-07-27T16:34:46.264Z,35.92
2022-07-27T16:37:12.947Z,36.24
2022-07-27T16:39:39.702Z,36.52
2022-07-27T16:42:06.336Z,37.13
2022-07-27T16:44:32.897Z,36.28
2022-07-27T16:46:59.502Z,35.49
2022-07-27T16:49:33.802Z,35.67
2022-07-27T16:52:04.682Z,37.15
2022-07-27T16:54:36.961Z,35.89
2022-07-27T16:57:05.402Z,36.61
2022-07-27T16:59:31.925Z,36.19
2022-07-27T17:01:58.584Z,37.03
2022-07-27T17:04:25.309Z,36.19
2022-07-27T17:06:51.830Z,36.56
2022-07-27T17:09:18.427Z,37.04
2022-07-27T17:11:45.132Z,37.13
2022-07-27T17:14:14.455Z,37.16
2022-07-27T17:16:41.298Z,37.59
2022-07-27T17:19:07.951Z,37.04
2022-07-27T17:21:34.460Z,38.06
2022-07-27T17:24:01.018Z,36.81
2022-07-27T17:26:27.615Z,38.38
2022-07-27T17:28:54.273Z,38.30
2022-07-27T17:31:21.419Z,39.06
2022-07-27T17:33:48.508Z,38.33
2022-07-27T17:36:15.769Z,37.76
2022-07-27T17:38:46.885Z,39.09
2022-07-27T17:41:18.096Z,40.09
2022-07-27T17:43:48.415Z,38.81
2022-07-27T17:46:15.144Z,38.63
2022-07-27T17:48:41.824Z,38.61
2022-07-27T17:51:10.455Z,38.27
2022-07-27T17:53:37.188Z,38.26
2022-07-27T17:56:04.965Z,39.04
2022-07-27T17:58:31.557Z,38.40
2022-07-27T18:00:58.287Z,39.61
2022-07-27T18:03:24.932Z,39.12
2022-07-27T18:05:52.074Z,42.41
2022-07-27T18:08:18.771Z,40.31
2022-07-27T18:10:45.297Z,39.63
2022-07-27T18:13:12.307Z,39.50
2022-07-27T18:15:48.007Z,41.51
2022-07-27T18:18:16.428Z,40.26
2022-07-27T18:20:45.166Z,42.50
2022-07-27T18:23:12.066Z,40.89
2022-07-27T18:25:39.207Z,43.36
2022-07-27T18:28:05.852Z,44.71
2022-07-27T18:30:32.479Z,44.16
2022-07-27T18:32:59.041Z,44.63
2022-07-27T18:35:25.620Z,44.23
2022-07-27T18:37:52.202Z,43.84
2022-07-27T18:40:18.968Z,45.26
2022-07-27T18:42:46.440Z,45.79
2022-07-27T18:45:13.121Z,45.44
2022-07-27T18:47:39.682Z,45.39
2022-07-27T18:50:07.177Z,45.48
2022-07-27T18:52:34.219Z,46.01
2022-07-27T18:55:00.770Z,46.31
2022-07-27T18:57:27.445Z,46.62
2022-07-27T18:59:53.995Z,46.63
2022-07-27T19:02:20.987Z,46.56
2022-07-27T19:04:47.566Z,47.43
2022-07-27T19:07:15.752Z,47.01
2022-07-27T19:09:42.679Z,47.88
2022-07-27T19:12:09.989Z,48.24
2022-07-27T19:14:37.051Z,47.76
2022-07-27T19:17:03.860Z,47.97
2022-07-27T19:19:30.914Z,48.06
2022-07-27T19:21:57.881Z,47.49
2022-07-27T19:24:24.592Z,48.71
2022-07-27T19:26:51.159Z,48.01
2022-07-27T19:29:19.844Z,48.80
2022-07-27T19:31:47.040Z,49.14
2022-07-27T19:34:13.591Z,49.75
2022-07-27T19:36:40.177Z,49.66
2022-07-27T19:39:08.104Z,49.64
2022-07-27T19:41:35.396Z,49.84
2022-07-27T19:44:02.412Z,50.41
2022-07-27T19:46:29.289Z,50.57
2022-07-27T19:48:56.074Z,50.51
2022-07-27T19:51:22.637Z,51.92
2022-07-27T19:53:49.412Z,52.00
2022-07-27T19:56:15.967Z,52.26
2022-07-27T19:58:42.563Z,52.46
2022-07-27T20:01:09.452Z,52.82
2022-07-27T20:03:47.426Z,53.59
2022-07-27T20:06:20.616Z,55.71
2022-07-27T20:08:48.011Z,55.76
2022-07-27T20:11:14.694Z,55.49
2022-07-27T20:13:41.421Z,55.89
2022-07-27T20:16:07.944Z,56.05
2022-07-27T20:18:35.948Z,56.41
2022-07-27T20:21:02.566Z,56.83
2022-07-27T20:23:29.326Z,56.69
2022-07-27T20:25:56.064Z,56.99
2022-07-27T20:28:25.846Z,56.84
2022-07-27T20:30:52.471Z,57.17
2022-07-27T20:33:22.783Z,57.54
2022-07-27T20:35:49.956Z,58.56
2022-07-27T20:38:16.846Z,59.27
2022-07-27T20:40:43.440Z,59.67
2022-07-27T20:43:10.023Z,59.32
2022-07-27T20:45:36.596Z,60.32
2022-07-27T20:48:03.343Z,60.05
2022-07-27T20:50:29.931Z,60.83
2022-07-27T20:52:58.162Z,61.22
2022-07-27T20:55:24.872Z,61.79
2022-07-27T20:57:51.345Z,62.39
2022-07-27T21:00:19.295Z,63.41
2022-07-27T21:02:45.931Z,64.19
2022-07-27T21:05:12.567Z,63.84
2022-07-27T21:07:39.241Z,64.01
2022-07-27T21:10:07.444Z,63.52
2022-07-27T21:12:34.047Z,64.62
2022-07-27T21:15:00.605Z,64.21
2022-07-27T21:17:27.139Z,63.94
2022-07-27T21:19:53.982Z,64.30
2022-07-27T21:22:20.691Z,64.89
2022-07-27T21:24:47.187Z,65.27
2022-07-27T21:27:19.737Z,66.17
2022-07-27T21:29:47.920Z,65.98
2022-07-27T21:32:14.546Z,65.67
2022-07-27T21:34:41.279Z,64.57
2022-07-27T21:37:07.867Z,64.45
2022-07-27T21:39:34.551Z,63.89
2022-07-27T21:42:02.265Z,64.74
2022-07-27T21:44:29.967Z,65.04
2022-07-27T21:46:56.779Z,65.21
2022-07-27T21:49:32.422Z,64.93
2022-07-27T21:52:01.384Z,64.59
2022-07-27T21:54:28.043Z,65.39
2022-07-27T21:56:54.545Z,64.43
2022-07-27T21:59:21.214Z,64.64
2022-07-27T22:01:47.795Z,65.27
2022-07-27T22:04:16.202Z,65.40
2022-07-27T22:06:43.782Z,65.74
2022-07-27T22:09:10.371Z,66.07
2022-07-27T22:11:36.903Z,65.29
2022-07-27T22:14:03.422Z,65.70
2022-07-27T22:16:30.123Z,65.74
2022-07-27T22:18:56.947Z,65.99
2022-07-27T22:21:23.480Z,66.00
2022-07-27T22:23:50.171Z,66.25
2022-07-27T22:26:17.447Z,66.17
2022-07-27T22:28:44.077Z,66.69
2022-07-27T22:31:23.085Z,66.42
2022-07-27T22:33:50.385Z,66.46
2022-07-27T22:36:16.988Z,67.40
2022-07-27T22:38:43.545Z,67.24
2022-07-27T22:41:10.290Z,66.92
2022-07-27T22:43:37.010Z,66.38
2022-07-27T22:46:04.903Z,66.36
2022-07-27T22:48:31.759Z,66.61
2022-07-27T22:50:58.263Z,66.86
2022-07-27T22:53:24.826Z,66.69
2022-07-27T22:55:51.366Z,67.62
2022-07-27T22:58:17.977Z,67.76
2022-07-27T23:00:44.540Z,68.42
2022-07-27T23:03:11.088Z,68.71
2022-07-27T23:05:37.655Z,69.85
2022-07-27T23:08:04.476Z,70.19
2022-07-27T23:10:46.173Z,70.52
2022-07-27T23:13:14.879Z,70.46
2022-07-27T23:15:41.866Z,70.95
2022-07-27T23:18:08.619Z,71.08
2022-07-27T23:20:35.550Z,71.30
2022-07-27T23:23:02.128Z,71.50
2022-07-27T23:25:36.260Z,71.81
2022-07-27T23:28:03.526Z,71.80
2022-07-27T23:30:30.015Z,71.77
2022-07-27T23:32:56.852Z,72.34
2022-07-27T23:35:23.676Z,73.00
2022-07-27T23:37:50.276Z,74.52
2022-07-27T23:43:01.151Z,76.50
2022-07-27T23:45:28.058Z,77.23
2022-07-27T23:47:54.836Z,77.82
2022-07-27T23:50:21.848Z,78.65
2022-07-27T23:52:48.366Z,78.25
2022-07-27T23:55:15.021Z,79.02
2022-07-27T23:57:41.698Z,79.55
